Henderson, Nebraska
Current Conditions -  °F | °C
As of 12:35 AM on Sunday 21 Dec 2014 (Local Time) from KAUH Reporting Station
Moderate Fog Moderate Fog  
Wind Chill: 32°   Ceiling: 100
Heat Index: 32°   Visibility: 0.25mi
Dew Point: 32°   Wind: 3mph
Humidity: 100%   Direction: 200°SSW
Pressure: 29.93"   Gusts: NA
Location:  40.78°N, 97.81°W
Report Text: KAUH 210635Z AUTO 20003KT 1/4SM FG OVC001 00/00 A2993 RMK AO2 T00000000
Loading
Personal Weather Stations






























Interactive Weather Map New forecast layout! Learn more

10-Day Weather Forecast

Advertisements
Track Severe Weather on mobile